sensor_id;sensor_type;location;lat;lon;timestamp;P1;durP1;ratioP1;P2;durP2;ratioP2
16522;SDS011;19889;52.546;13.348;2022-12-18T00:00:55;21.30;;;10.33;;
16522;SDS011;19889;52.546;13.348;2022-12-18T00:03:24;23.10;;;11.20;;
16522;SDS011;19889;52.546;13.348;2022-12-18T00:05:52;22.17;;;10.80;;
16522;SDS011;19889;52.546;13.348;2022-12-18T00:08:19;28.80;;;11.20;;
16522;SDS011;19889;52.546;13.348;2022-12-18T00:10:46;23.73;;;10.03;;
16522;SDS011;19889;52.546;13.348;2022-12-18T00:13:13;26.70;;;12.30;;
16522;SDS011;19889;52.546;13.348;2022-12-18T00:15:40;24.17;;;11.30;;
16522;SDS011;19889;52.546;13.348;2022-12-18T00:18:07;22.93;;;10.70;;
16522;SDS011;19889;52.546;13.348;2022-12-18T00:20:37;24.27;;;10.13;;
16522;SDS011;19889;52.546;13.348;2022-12-18T00:23:05;21.83;;;9.30;;
16522;SDS011;19889;52.546;13.348;2022-12-18T00:25:32;26.17;;;10.77;;
16522;SDS011;19889;52.546;13.348;2022-12-18T00:28:00;23.13;;;9.30;;
16522;SDS011;19889;52.546;13.348;2022-12-18T00:30:28;24.27;;;11.27;;
16522;SDS011;19889;52.546;13.348;2022-12-18T00:32:55;21.03;;;10.17;;
16522;SDS011;19889;52.546;13.348;2022-12-18T00:35:24;23.43;;;10.63;;
16522;SDS011;19889;52.546;13.348;2022-12-18T00:37:53;25.87;;;10.10;;
16522;SDS011;19889;52.546;13.348;2022-12-18T00:40:22;22.70;;;10.90;;
16522;SDS011;19889;52.546;13.348;2022-12-18T00:42:49;25.40;;;10.57;;
16522;SDS011;19889;52.546;13.348;2022-12-18T00:45:21;22.57;;;10.97;;
16522;SDS011;19889;52.546;13.348;2022-12-18T00:47:50;25.50;;;10.87;;
16522;SDS011;19889;52.546;13.348;2022-12-18T00:50:18;24.90;;;9.53;;
16522;SDS011;19889;52.546;13.348;2022-12-18T00:52:45;23.03;;;10.47;;
16522;SDS011;19889;52.546;13.348;2022-12-18T00:55:13;18.90;;;8.87;;
16522;SDS011;19889;52.546;13.348;2022-12-18T00:57:41;25.73;;;10.13;;
16522;SDS011;19889;52.546;13.348;2022-12-18T01:00:08;29.43;;;10.80;;
16522;SDS011;19889;52.546;13.348;2022-12-18T01:02:38;23.33;;;9.93;;
16522;SDS011;19889;52.546;13.348;2022-12-18T01:05:06;26.47;;;11.37;;
16522;SDS011;19889;52.546;13.348;2022-12-18T01:07:34;23.57;;;10.23;;
16522;SDS011;19889;52.546;13.348;2022-12-18T01:10:02;24.17;;;10.57;;
16522;SDS011;19889;52.546;13.348;2022-12-18T01:12:31;28.23;;;11.20;;
16522;SDS011;19889;52.546;13.348;2022-12-18T01:14:58;24.60;;;10.83;;
16522;SDS011;19889;52.546;13.348;2022-12-18T01:17:25;22.90;;;11.10;;
16522;SDS011;19889;52.546;13.348;2022-12-18T01:19:52;28.60;;;11.03;;
16522;SDS011;19889;52.546;13.348;2022-12-18T01:22:19;24.23;;;9.90;;
16522;SDS011;19889;52.546;13.348;2022-12-18T01:24:46;25.83;;;11.07;;
16522;SDS011;19889;52.546;13.348;2022-12-18T01:27:13;24.17;;;9.67;;
16522;SDS011;19889;52.546;13.348;2022-12-18T01:29:41;22.67;;;9.97;;
16522;SDS011;19889;52.546;13.348;2022-12-18T01:32:08;24.63;;;10.53;;
16522;SDS011;19889;52.546;13.348;2022-12-18T01:34:35;26.83;;;11.27;;
16522;SDS011;19889;52.546;13.348;2022-12-18T01:37:03;21.13;;;10.20;;
16522;SDS011;19889;52.546;13.348;2022-12-18T01:39:30;24.93;;;10.93;;
16522;SDS011;19889;52.546;13.348;2022-12-18T01:42:02;20.33;;;9.20;;
16522;SDS011;19889;52.546;13.348;2022-12-18T01:47:28;23.43;;;11.13;;
16522;SDS011;19889;52.546;13.348;2022-12-18T01:50:00;25.27;;;11.10;;
16522;SDS011;19889;52.546;13.348;2022-12-18T01:52:32;25.67;;;10.70;;
16522;SDS011;19889;52.546;13.348;2022-12-18T01:55:02;25.90;;;11.17;;
16522;SDS011;19889;52.546;13.348;2022-12-18T01:57:30;29.60;;;11.80;;
16522;SDS011;19889;52.546;13.348;2022-12-18T02:00:02;25.97;;;10.80;;
16522;SDS011;19889;52.546;13.348;2022-12-18T02:02:42;23.37;;;9.67;;
16522;SDS011;19889;52.546;13.348;2022-12-18T02:05:12;23.20;;;10.00;;
16522;SDS011;19889;52.546;13.348;2022-12-18T02:07:46;25.30;;;11.20;;
16522;SDS011;19889;52.546;13.348;2022-12-18T02:10:23;22.93;;;11.60;;
16522;SDS011;19889;52.546;13.348;2022-12-18T02:12:55;25.17;;;11.17;;
16522;SDS011;19889;52.546;13.348;2022-12-18T02:15:31;24.23;;;10.17;;
16522;SDS011;19889;52.546;13.348;2022-12-18T02:18:07;24.00;;;11.17;;
16522;SDS011;19889;52.546;13.348;2022-12-18T02:20:39;23.10;;;9.77;;
16522;SDS011;19889;52.546;13.348;2022-12-18T02:23:12;27.73;;;11.90;;
16522;SDS011;19889;52.546;13.348;2022-12-18T02:25:55;25.23;;;11.30;;
16522;SDS011;19889;52.546;13.348;2022-12-18T02:28:34;24.00;;;10.03;;
16522;SDS011;19889;52.546;13.348;2022-12-18T02:31:06;19.13;;;9.10;;
16522;SDS011;19889;52.546;13.348;2022-12-18T02:33:36;26.07;;;11.03;;
16522;SDS011;19889;52.546;13.348;2022-12-18T02:36:06;23.90;;;9.77;;
16522;SDS011;19889;52.546;13.348;2022-12-18T02:38:36;23.83;;;10.13;;
16522;SDS011;19889;52.546;13.348;2022-12-18T02:41:11;23.30;;;10.50;;
16522;SDS011;19889;52.546;13.348;2022-12-18T02:43:42;28.80;;;12.03;;
16522;SDS011;19889;52.546;13.348;2022-12-18T02:46:23;29.97;;;11.53;;
16522;SDS011;19889;52.546;13.348;2022-12-18T02:49:01;33.47;;;11.70;;
16522;SDS011;19889;52.546;13.348;2022-12-18T02:51:39;23.60;;;11.73;;
16522;SDS011;19889;52.546;13.348;2022-12-18T02:54:16;25.67;;;10.77;;
16522;SDS011;19889;52.546;13.348;2022-12-18T02:56:55;26.97;;;11.40;;
16522;SDS011;19889;52.546;13.348;2022-12-18T02:59:27;26.37;;;11.67;;
16522;SDS011;19889;52.546;13.348;2022-12-18T03:02:02;22.90;;;10.57;;
16522;SDS011;19889;52.546;13.348;2022-12-18T03:04:35;21.20;;;10.10;;
16522;SDS011;19889;52.546;13.348;2022-12-18T03:07:08;28.23;;;11.23;;
16522;SDS011;19889;52.546;13.348;2022-12-18T03:09:39;25.07;;;10.20;;
16522;SDS011;19889;52.546;13.348;2022-12-18T03:12:14;27.87;;;11.70;;
16522;SDS011;19889;52.546;13.348;2022-12-18T03:14:54;23.93;;;10.37;;
16522;SDS011;19889;52.546;13.348;2022-12-18T03:17:26;25.97;;;10.63;;
16522;SDS011;19889;52.546;13.348;2022-12-18T03:19:58;23.87;;;10.40;;
16522;SDS011;19889;52.546;13.348;2022-12-18T03:22:34;21.20;;;10.17;;
16522;SDS011;19889;52.546;13.348;2022-12-18T03:25:04;27.03;;;10.40;;
16522;SDS011;19889;52.546;13.348;2022-12-18T03:27:39;34.57;;;10.57;;
16522;SDS011;19889;52.546;13.348;2022-12-18T03:30:12;28.57;;;11.77;;
16522;SDS011;19889;52.546;13.348;2022-12-18T03:32:41;29.67;;;11.53;;
16522;SDS011;19889;52.546;13.348;2022-12-18T03:35:14;27.23;;;12.97;;
16522;SDS011;19889;52.546;13.348;2022-12-18T03:37:46;28.80;;;12.37;;
16522;SDS011;19889;52.546;13.348;2022-12-18T03:40:13;29.57;;;12.87;;
16522;SDS011;19889;52.546;13.348;2022-12-18T03:42:45;33.47;;;11.43;;
16522;SDS011;19889;52.546;13.348;2022-12-18T03:45:19;28.47;;;11.20;;
16522;SDS011;19889;52.546;13.348;2022-12-18T03:47:53;28.70;;;12.07;;
16522;SDS011;19889;52.546;13.348;2022-12-18T03:50:34;28.00;;;12.23;;
16522;SDS011;19889;52.546;13.348;2022-12-18T03:53:09;30.00;;;12.20;;
16522;SDS011;19889;52.546;13.348;2022-12-18T03:55:50;28.07;;;11.73;;
16522;SDS011;19889;52.546;13.348;2022-12-18T03:58:20;35.53;;;12.93;;
16522;SDS011;19889;52.546;13.348;2022-12-18T04:01:05;35.90;;;14.87;;
16522;SDS011;19889;52.546;13.348;2022-12-18T04:03:34;30.97;;;12.47;;
16522;SDS011;19889;52.546;13.348;2022-12-18T04:06:06;35.93;;;12.77;;
16522;SDS011;19889;52.546;13.348;2022-12-18T04:08:34;31.20;;;12.47;;
16522;SDS011;19889;52.546;13.348;2022-12-18T04:11:05;32.23;;;14.40;;
16522;SDS011;19889;52.546;13.348;2022-12-18T04:13:34;38.03;;;14.30;;
16522;SDS011;19889;52.546;13.348;2022-12-18T04:16:06;34.77;;;12.83;;
16522;SDS011;19889;52.546;13.348;2022-12-18T04:18:37;37.67;;;15.60;;
16522;SDS011;19889;52.546;13.348;2022-12-18T04:21:04;32.67;;;15.77;;
16522;SDS011;19889;52.546;13.348;2022-12-18T04:23:31;41.73;;;15.77;;
16522;SDS011;19889;52.546;13.348;2022-12-18T04:25:58;36.17;;;14.80;;
16522;SDS011;19889;52.546;13.348;2022-12-18T04:28:40;36.00;;;14.93;;
16522;SDS011;19889;52.546;13.348;2022-12-18T04:31:07;44.03;;;15.73;;
16522;SDS011;19889;52.546;13.348;2022-12-18T04:33:34;38.70;;;16.03;;
16522;SDS011;19889;52.546;13.348;2022-12-18T04:36:02;34.17;;;16.43;;
16522;SDS011;19889;52.546;13.348;2022-12-18T04:38:30;41.03;;;15.23;;
16522;SDS011;19889;52.546;13.348;2022-12-18T04:41:03;41.93;;;15.43;;
16522;SDS011;19889;52.546;13.348;2022-12-18T04:43:30;42.03;;;15.60;;
16522;SDS011;19889;52.546;13.348;2022-12-18T04:46:03;41.83;;;15.37;;
16522;SDS011;19889;52.546;13.348;2022-12-18T04:48:31;45.47;;;16.17;;
16522;SDS011;19889;52.546;13.348;2022-12-18T04:50:58;44.07;;;14.60;;
16522;SDS011;19889;52.546;13.348;2022-12-18T04:53:25;43.43;;;16.23;;
16522;SDS011;19889;52.546;13.348;2022-12-18T04:56:01;39.23;;;13.70;;
16522;SDS011;19889;52.546;13.348;2022-12-18T04:58:29;35.73;;;13.57;;
16522;SDS011;19889;52.546;13.348;2022-12-18T05:00:56;35.50;;;13.77;;
16522;SDS011;19889;52.546;13.348;2022-12-18T05:03:25;39.13;;;15.83;;
16522;SDS011;19889;52.546;13.348;2022-12-18T05:05:52;36.47;;;13.90;;
16522;SDS011;19889;52.546;13.348;2022-12-18T05:08:19;34.83;;;13.53;;
16522;SDS011;19889;52.546;13.348;2022-12-18T05:10:46;39.23;;;14.77;;
16522;SDS011;19889;52.546;13.348;2022-12-18T05:13:13;37.40;;;13.80;;
16522;SDS011;19889;52.546;13.348;2022-12-18T05:15:40;45.23;;;16.13;;
16522;SDS011;19889;52.546;13.348;2022-12-18T05:18:08;35.93;;;13.73;;
16522;SDS011;19889;52.546;13.348;2022-12-18T05:20:36;39.60;;;14.37;;
16522;SDS011;19889;52.546;13.348;2022-12-18T05:23:03;40.40;;;15.53;;
16522;SDS011;19889;52.546;13.348;2022-12-18T05:25:30;34.57;;;14.03;;
16522;SDS011;19889;52.546;13.348;2022-12-18T05:27:57;42.67;;;16.57;;
16522;SDS011;19889;52.546;13.348;2022-12-18T05:30:24;36.03;;;14.87;;
16522;SDS011;19889;52.546;13.348;2022-12-18T05:32:51;30.30;;;13.07;;
16522;SDS011;19889;52.546;13.348;2022-12-18T05:35:18;32.80;;;14.13;;
16522;SDS011;19889;52.546;13.348;2022-12-18T05:37:46;34.23;;;12.60;;
16522;SDS011;19889;52.546;13.348;2022-12-18T05:40:13;33.70;;;12.20;;
16522;SDS011;19889;52.546;13.348;2022-12-18T05:42:40;26.87;;;10.97;;
16522;SDS011;19889;52.546;13.348;2022-12-18T05:45:07;30.57;;;12.77;;
16522;SDS011;19889;52.546;13.348;2022-12-18T05:47:35;37.53;;;13.93;;
16522;SDS011;19889;52.546;13.348;2022-12-18T05:50:02;34.57;;;13.17;;
16522;SDS011;19889;52.546;13.348;2022-12-18T05:52:30;27.63;;;13.63;;
16522;SDS011;19889;52.546;13.348;2022-12-18T05:54:58;30.47;;;11.10;;
16522;SDS011;19889;52.546;13.348;2022-12-18T05:57:25;31.60;;;11.83;;
16522;SDS011;19889;52.546;13.348;2022-12-18T05:59:52;31.00;;;12.47;;
16522;SDS011;19889;52.546;13.348;2022-12-18T06:02:19;25.50;;;12.10;;
16522;SDS011;19889;52.546;13.348;2022-12-18T06:04:47;32.33;;;12.87;;
16522;SDS011;19889;52.546;13.348;2022-12-18T06:07:14;32.07;;;11.73;;
16522;SDS011;19889;52.546;13.348;2022-12-18T06:09:40;32.53;;;12.00;;
16522;SDS011;19889;52.546;13.348;2022-12-18T06:12:09;31.33;;;12.77;;
16522;SDS011;19889;52.546;13.348;2022-12-18T06:14:36;27.53;;;12.50;;
16522;SDS011;19889;52.546;13.348;2022-12-18T06:17:04;34.43;;;13.43;;
16522;SDS011;19889;52.546;13.348;2022-12-18T06:19:31;33.17;;;11.90;;
16522;SDS011;19889;52.546;13.348;2022-12-18T06:21:57;31.47;;;13.87;;
16522;SDS011;19889;52.546;13.348;2022-12-18T06:24:24;34.23;;;12.70;;
16522;SDS011;19889;52.546;13.348;2022-12-18T06:26:51;32.37;;;12.63;;
16522;SDS011;19889;52.546;13.348;2022-12-18T06:29:20;32.07;;;12.40;;
16522;SDS011;19889;52.546;13.348;2022-12-18T06:31:50;37.20;;;14.47;;
16522;SDS011;19889;52.546;13.348;2022-12-18T06:34:17;39.13;;;13.80;;
16522;SDS011;19889;52.546;13.348;2022-12-18T06:36:44;32.43;;;12.63;;
16522;SDS011;19889;52.546;13.348;2022-12-18T06:39:11;31.93;;;13.57;;
16522;SDS011;19889;52.546;13.348;2022-12-18T06:41:38;38.50;;;14.03;;
16522;SDS011;19889;52.546;13.348;2022-12-18T06:44:04;39.23;;;13.83;;
16522;SDS011;19889;52.546;13.348;2022-12-18T06:46:33;38.87;;;15.70;;
16522;SDS011;19889;52.546;13.348;2022-12-18T06:49:00;35.93;;;13.30;;
16522;SDS011;19889;52.546;13.348;2022-12-18T06:51:27;37.93;;;14.10;;
16522;SDS011;19889;52.546;13.348;2022-12-18T06:53:54;40.53;;;14.17;;
16522;SDS011;19889;52.546;13.348;2022-12-18T06:56:21;30.53;;;13.47;;
16522;SDS011;19889;52.546;13.348;2022-12-18T06:58:49;31.53;;;13.87;;
16522;SDS011;19889;52.546;13.348;2022-12-18T07:01:16;34.13;;;13.13;;
16522;SDS011;19889;52.546;13.348;2022-12-18T07:03:44;28.50;;;12.67;;
16522;SDS011;19889;52.546;13.348;2022-12-18T07:06:13;38.40;;;14.73;;
16522;SDS011;19889;52.546;13.348;2022-12-18T07:08:41;30.07;;;12.57;;
16522;SDS011;19889;52.546;13.348;2022-12-18T07:11:08;40.00;;;12.43;;
16522;SDS011;19889;52.546;13.348;2022-12-18T07:13:35;26.90;;;11.20;;
16522;SDS011;19889;52.546;13.348;2022-12-18T07:16:03;32.47;;;12.60;;
16522;SDS011;19889;52.546;13.348;2022-12-18T07:18:31;29.43;;;13.40;;
16522;SDS011;19889;52.546;13.348;2022-12-18T07:21:03;25.40;;;10.73;;
16522;SDS011;19889;52.546;13.348;2022-12-18T07:23:31;29.70;;;12.37;;
16522;SDS011;19889;52.546;13.348;2022-12-18T07:26:00;26.73;;;11.47;;
16522;SDS011;19889;52.546;13.348;2022-12-18T07:28:30;23.83;;;11.10;;
16522;SDS011;19889;52.546;13.348;2022-12-18T07:30:57;25.80;;;10.90;;
16522;SDS011;19889;52.546;13.348;2022-12-18T07:33:25;30.63;;;11.43;;
16522;SDS011;19889;52.546;13.348;2022-12-18T07:35:52;24.97;;;11.10;;
16522;SDS011;19889;52.546;13.348;2022-12-18T07:38:20;28.57;;;12.50;;
16522;SDS011;19889;52.546;13.348;2022-12-18T07:40:47;26.43;;;11.93;;
16522;SDS011;19889;52.546;13.348;2022-12-18T07:45:42;34.50;;;13.10;;
16522;SDS011;19889;52.546;13.348;2022-12-18T07:48:10;31.53;;;13.13;;
16522;SDS011;19889;52.546;13.348;2022-12-18T07:50:37;28.27;;;11.50;;
16522;SDS011;19889;52.546;13.348;2022-12-18T07:53:04;25.90;;;11.13;;
16522;SDS011;19889;52.546;13.348;2022-12-18T07:55:33;21.73;;;9.30;;
16522;SDS011;19889;52.546;13.348;2022-12-18T07:58:01;22.37;;;10.57;;
16522;SDS011;19889;52.546;13.348;2022-12-18T08:00:28;29.67;;;11.57;;
16522;SDS011;19889;52.546;13.348;2022-12-18T08:02:55;24.27;;;10.87;;
16522;SDS011;19889;52.546;13.348;2022-12-18T08:05:22;28.30;;;13.47;;
16522;SDS011;19889;52.546;13.348;2022-12-18T08:07:50;26.83;;;11.67;;
16522;SDS011;19889;52.546;13.348;2022-12-18T08:10:16;33.13;;;13.43;;
16522;SDS011;19889;52.546;13.348;2022-12-18T08:12:45;31.67;;;11.80;;
16522;SDS011;19889;52.546;13.348;2022-12-18T08:15:15;27.90;;;11.60;;
16522;SDS011;19889;52.546;13.348;2022-12-18T08:17:42;27.60;;;11.27;;
16522;SDS011;19889;52.546;13.348;2022-12-18T08:20:09;26.30;;;10.40;;
16522;SDS011;19889;52.546;13.348;2022-12-18T08:22:36;33.03;;;12.23;;
16522;SDS011;19889;52.546;13.348;2022-12-18T08:25:04;31.10;;;12.80;;
16522;SDS011;19889;52.546;13.348;2022-12-18T08:27:32;22.47;;;10.53;;
16522;SDS011;19889;52.546;13.348;2022-12-18T08:30:00;28.73;;;11.50;;
16522;SDS011;19889;52.546;13.348;2022-12-18T08:32:28;37.27;;;13.63;;
16522;SDS011;19889;52.546;13.348;2022-12-18T08:34:55;32.40;;;12.63;;
16522;SDS011;19889;52.546;13.348;2022-12-18T08:37:22;28.27;;;12.07;;
16522;SDS011;19889;52.546;13.348;2022-12-18T08:39:49;34.60;;;12.67;;
16522;SDS011;19889;52.546;13.348;2022-12-18T08:42:16;33.67;;;13.37;;
16522;SDS011;19889;52.546;13.348;2022-12-18T08:45:02;29.77;;;11.47;;
16522;SDS011;19889;52.546;13.348;2022-12-18T08:47:29;26.47;;;14.23;;
16522;SDS011;19889;52.546;13.348;2022-12-18T08:49:56;28.60;;;12.90;;
16522;SDS011;19889;52.546;13.348;2022-12-18T08:52:23;29.93;;;12.43;;
16522;SDS011;19889;52.546;13.348;2022-12-18T08:54:50;30.20;;;11.63;;
16522;SDS011;19889;52.546;13.348;2022-12-18T08:57:17;20.93;;;10.17;;
16522;SDS011;19889;52.546;13.348;2022-12-18T08:59:44;25.33;;;12.30;;
16522;SDS011;19889;52.546;13.348;2022-12-18T09:02:12;22.80;;;11.20;;
16522;SDS011;19889;52.546;13.348;2022-12-18T09:04:39;28.53;;;10.30;;
16522;SDS011;19889;52.546;13.348;2022-12-18T09:07:06;24.17;;;9.97;;
16522;SDS011;19889;52.546;13.348;2022-12-18T09:09:34;30.93;;;12.83;;
16522;SDS011;19889;52.546;13.348;2022-12-18T09:12:02;23.40;;;10.57;;
16522;SDS011;19889;52.546;13.348;2022-12-18T09:14:29;26.80;;;10.83;;
16522;SDS011;19889;52.546;13.348;2022-12-18T09:16:56;26.67;;;11.57;;
16522;SDS011;19889;52.546;13.348;2022-12-18T09:19:24;27.23;;;12.40;;
16522;SDS011;19889;52.546;13.348;2022-12-18T09:21:51;31.60;;;12.20;;
16522;SDS011;19889;52.546;13.348;2022-12-18T09:24:18;26.17;;;12.53;;
16522;SDS011;19889;52.546;13.348;2022-12-18T09:26:45;23.83;;;10.60;;
16522;SDS011;19889;52.546;13.348;2022-12-18T09:29:12;30.17;;;11.73;;
16522;SDS011;19889;52.546;13.348;2022-12-18T09:31:39;28.37;;;11.30;;
16522;SDS011;19889;52.546;13.348;2022-12-18T09:34:06;25.70;;;11.10;;
16522;SDS011;19889;52.546;13.348;2022-12-18T09:36:35;29.17;;;12.33;;
16522;SDS011;19889;52.546;13.348;2022-12-18T09:39:02;21.60;;;10.63;;
16522;SDS011;19889;52.546;13.348;2022-12-18T09:41:33;24.70;;;11.70;;
16522;SDS011;19889;52.546;13.348;2022-12-18T09:44:11;28.20;;;11.67;;
16522;SDS011;19889;52.546;13.348;2022-12-18T09:46:45;28.37;;;11.40;;
16522;SDS011;19889;52.546;13.348;2022-12-18T09:49:16;22.93;;;10.57;;
16522;SDS011;19889;52.546;13.348;2022-12-18T09:51:46;26.07;;;11.67;;
16522;SDS011;19889;52.546;13.348;2022-12-18T09:54:18;24.00;;;11.33;;
16522;SDS011;19889;52.546;13.348;2022-12-18T09:56:49;24.57;;;9.97;;
16522;SDS011;19889;52.546;13.348;2022-12-18T09:59:18;23.50;;;10.93;;
16522;SDS011;19889;52.546;13.348;2022-12-18T10:01:49;22.53;;;11.30;;
16522;SDS011;19889;52.546;13.348;2022-12-18T10:04:16;25.50;;;10.73;;
16522;SDS011;19889;52.546;13.348;2022-12-18T10:06:44;26.00;;;11.83;;
16522;SDS011;19889;52.546;13.348;2022-12-18T10:09:20;25.17;;;10.17;;
16522;SDS011;19889;52.546;13.348;2022-12-18T10:11:56;31.43;;;11.50;;
16522;SDS011;19889;52.546;13.348;2022-12-18T10:14:30;26.13;;;10.87;;
16522;SDS011;19889;52.546;13.348;2022-12-18T10:17:04;27.73;;;11.30;;
16522;SDS011;19889;52.546;13.348;2022-12-18T10:19:45;24.97;;;11.70;;
16522;SDS011;19889;52.546;13.348;2022-12-18T10:25:10;30.70;;;11.57;;
16522;SDS011;19889;52.546;13.348;2022-12-18T10:27:45;28.73;;;11.70;;
16522;SDS011;19889;52.546;13.348;2022-12-18T10:30:13;26.87;;;13.00;;
16522;SDS011;19889;52.546;13.348;2022-12-18T10:32:42;26.77;;;12.87;;
16522;SDS011;19889;52.546;13.348;2022-12-18T10:35:11;25.10;;;12.23;;
16522;SDS011;19889;52.546;13.348;2022-12-18T10:40:48;28.03;;;11.87;;
16522;SDS011;19889;52.546;13.348;2022-12-18T10:43:19;24.43;;;11.53;;
16522;SDS011;19889;52.546;13.348;2022-12-18T10:46:02;25.30;;;10.87;;
16522;SDS011;19889;52.546;13.348;2022-12-18T10:48:41;28.33;;;11.43;;
16522;SDS011;19889;52.546;13.348;2022-12-18T10:51:20;31.90;;;11.23;;
16522;SDS011;19889;52.546;13.348;2022-12-18T10:53:51;26.80;;;10.97;;
16522;SDS011;19889;52.546;13.348;2022-12-18T10:56:26;22.80;;;11.00;;
16522;SDS011;19889;52.546;13.348;2022-12-18T10:58:55;28.40;;;13.70;;
16522;SDS011;19889;52.546;13.348;2022-12-18T11:01:24;27.67;;;11.17;;
16522;SDS011;19889;52.546;13.348;2022-12-18T11:03:59;28.63;;;11.83;;
16522;SDS011;19889;52.546;13.348;2022-12-18T11:06:33;27.97;;;11.70;;
16522;SDS011;19889;52.546;13.348;2022-12-18T11:09:01;28.37;;;11.93;;
16522;SDS011;19889;52.546;13.348;2022-12-18T11:11:31;25.97;;;11.73;;
16522;SDS011;19889;52.546;13.348;2022-12-18T11:14:01;31.00;;;12.37;;
16522;SDS011;19889;52.546;13.348;2022-12-18T11:16:31;31.13;;;12.03;;
16522;SDS011;19889;52.546;13.348;2022-12-18T11:19:11;31.87;;;13.10;;
16522;SDS011;19889;52.546;13.348;2022-12-18T11:21:46;27.73;;;12.33;;
16522;SDS011;19889;52.546;13.348;2022-12-18T11:24:17;34.67;;;13.00;;
16522;SDS011;19889;52.546;13.348;2022-12-18T11:26:49;31.00;;;12.20;;
16522;SDS011;19889;52.546;13.348;2022-12-18T11:29:17;36.03;;;13.60;;
16522;SDS011;19889;52.546;13.348;2022-12-18T11:31:48;31.07;;;13.23;;
16522;SDS011;19889;52.546;13.348;2022-12-18T11:34:16;30.63;;;13.70;;
16522;SDS011;19889;52.546;13.348;2022-12-18T11:36:52;38.67;;;15.17;;
16522;SDS011;19889;52.546;13.348;2022-12-18T11:39:20;27.17;;;11.90;;
16522;SDS011;19889;52.546;13.348;2022-12-18T11:41:59;28.87;;;11.60;;
16522;SDS011;19889;52.546;13.348;2022-12-18T11:44:38;29.83;;;13.10;;
16522;SDS011;19889;52.546;13.348;2022-12-18T11:47:16;25.50;;;11.47;;
16522;SDS011;19889;52.546;13.348;2022-12-18T11:49:51;28.00;;;11.63;;
16522;SDS011;19889;52.546;13.348;2022-12-18T11:52:19;28.90;;;11.77;;
16522;SDS011;19889;52.546;13.348;2022-12-18T11:54:51;28.53;;;12.40;;
16522;SDS011;19889;52.546;13.348;2022-12-18T11:57:23;33.13;;;12.20;;
16522;SDS011;19889;52.546;13.348;2022-12-18T12:00:01;34.33;;;12.23;;
16522;SDS011;19889;52.546;13.348;2022-12-18T12:02:43;26.97;;;12.03;;
16522;SDS011;19889;52.546;13.348;2022-12-18T12:05:22;27.60;;;12.87;;
16522;SDS011;19889;52.546;13.348;2022-12-18T12:08:01;25.20;;;10.17;;
16522;SDS011;19889;52.546;13.348;2022-12-18T12:10:39;19.17;;;8.93;;
16522;SDS011;19889;52.546;13.348;2022-12-18T12:13:19;21.97;;;9.60;;
16522;SDS011;19889;52.546;13.348;2022-12-18T12:15:55;21.53;;;10.67;;
16522;SDS011;19889;52.546;13.348;2022-12-18T12:18:33;23.10;;;10.43;;
16522;SDS011;19889;52.546;13.348;2022-12-18T12:21:10;27.27;;;11.23;;
16522;SDS011;19889;52.546;13.348;2022-12-18T12:23:45;23.67;;;12.43;;
16522;SDS011;19889;52.546;13.348;2022-12-18T12:26:21;25.93;;;11.47;;
16522;SDS011;19889;52.546;13.348;2022-12-18T12:29:00;27.60;;;11.43;;
16522;SDS011;19889;52.546;13.348;2022-12-18T12:31:46;26.63;;;11.73;;
16522;SDS011;19889;52.546;13.348;2022-12-18T12:34:33;22.00;;;11.30;;
16522;SDS011;19889;52.546;13.348;2022-12-18T12:37:12;22.37;;;10.83;;
16522;SDS011;19889;52.546;13.348;2022-12-18T12:39:49;25.83;;;11.20;;
16522;SDS011;19889;52.546;13.348;2022-12-18T12:42:24;23.30;;;10.40;;
16522;SDS011;19889;52.546;13.348;2022-12-18T12:45:22;22.07;;;9.97;;
16522;SDS011;19889;52.546;13.348;2022-12-18T12:47:54;23.40;;;12.03;;
16522;SDS011;19889;52.546;13.348;2022-12-18T12:50:24;22.30;;;10.50;;
16522;SDS011;19889;52.546;13.348;2022-12-18T12:52:53;22.17;;;9.23;;
16522;SDS011;19889;52.546;13.348;2022-12-18T12:55:22;29.27;;;10.43;;
16522;SDS011;19889;52.546;13.348;2022-12-18T12:57:54;22.90;;;11.20;;
16522;SDS011;19889;52.546;13.348;2022-12-18T13:00:26;25.10;;;10.17;;
16522;SDS011;19889;52.546;13.348;2022-12-18T13:03:04;22.33;;;9.40;;
16522;SDS011;19889;52.546;13.348;2022-12-18T13:05:38;19.83;;;11.57;;
16522;SDS011;19889;52.546;13.348;2022-12-18T13:08:10;23.37;;;9.87;;
16522;SDS011;19889;52.546;13.348;2022-12-18T13:10:38;23.87;;;10.50;;
16522;SDS011;19889;52.546;13.348;2022-12-18T13:13:07;24.40;;;11.43;;
16522;SDS011;19889;52.546;13.348;2022-12-18T13:15:39;26.13;;;11.57;;
16522;SDS011;19889;52.546;13.348;2022-12-18T13:18:15;26.43;;;10.83;;
16522;SDS011;19889;52.546;13.348;2022-12-18T13:20:44;26.03;;;11.83;;
16522;SDS011;19889;52.546;13.348;2022-12-18T13:23:23;22.90;;;11.63;;
16522;SDS011;19889;52.546;13.348;2022-12-18T13:25:57;25.43;;;11.73;;
16522;SDS011;19889;52.546;13.348;2022-12-18T13:34:22;20.17;;;10.13;;
16522;SDS011;19889;52.546;13.348;2022-12-18T13:36:50;26.60;;;11.47;;
16522;SDS011;19889;52.546;13.348;2022-12-18T13:39:22;20.43;;;10.10;;
16522;SDS011;19889;52.546;13.348;2022-12-18T13:41:52;19.93;;;10.20;;
16522;SDS011;19889;52.546;13.348;2022-12-18T13:44:25;27.70;;;11.37;;
16522;SDS011;19889;52.546;13.348;2022-12-18T13:46:57;24.50;;;11.77;;
16522;SDS011;19889;52.546;13.348;2022-12-18T13:49:27;25.07;;;11.47;;
16522;SDS011;19889;52.546;13.348;2022-12-18T13:52:02;28.77;;;13.47;;
16522;SDS011;19889;52.546;13.348;2022-12-18T13:54:41;22.67;;;11.43;;
16522;SDS011;19889;52.546;13.348;2022-12-18T13:57:24;23.60;;;12.50;;
16522;SDS011;19889;52.546;13.348;2022-12-18T13:59:53;23.93;;;12.07;;
16522;SDS011;19889;52.546;13.348;2022-12-18T14:02:21;29.63;;;13.67;;
16522;SDS011;19889;52.546;13.348;2022-12-18T14:04:50;26.60;;;12.43;;
16522;SDS011;19889;52.546;13.348;2022-12-18T14:07:19;28.17;;;11.00;;
16522;SDS011;19889;52.546;13.348;2022-12-18T14:09:50;23.93;;;11.90;;
16522;SDS011;19889;52.546;13.348;2022-12-18T14:12:20;22.50;;;11.53;;
16522;SDS011;19889;52.546;13.348;2022-12-18T14:15:09;21.10;;;11.07;;
16522;SDS011;19889;52.546;13.348;2022-12-18T14:17:49;21.47;;;11.50;;
16522;SDS011;19889;52.546;13.348;2022-12-18T14:20:18;28.53;;;13.90;;
16522;SDS011;19889;52.546;13.348;2022-12-18T14:22:46;27.13;;;12.93;;
16522;SDS011;19889;52.546;13.348;2022-12-18T14:25:19;22.23;;;11.07;;
16522;SDS011;19889;52.546;13.348;2022-12-18T14:27:50;22.70;;;12.77;;
16522;SDS011;19889;52.546;13.348;2022-12-18T14:30:25;25.33;;;13.03;;
16522;SDS011;19889;52.546;13.348;2022-12-18T14:33:00;24.70;;;12.20;;
16522;SDS011;19889;52.546;13.348;2022-12-18T14:35:32;34.00;;;13.70;;
16522;SDS011;19889;52.546;13.348;2022-12-18T14:38:21;24.43;;;12.63;;
16522;SDS011;19889;52.546;13.348;2022-12-18T14:40:53;26.30;;;12.87;;
16522;SDS011;19889;52.546;13.348;2022-12-18T14:43:29;24.67;;;12.13;;
16522;SDS011;19889;52.546;13.348;2022-12-18T14:45:58;29.53;;;16.37;;